createdAt,value
2022-10-30T00:01:51.434Z,86.77
2022-10-30T00:04:23.920Z,86.17
2022-10-30T00:06:55.963Z,86.37
2022-10-30T00:09:27.983Z,86.19
2022-10-30T00:11:59.926Z,86.35
2022-10-30T00:14:31.959Z,86.43
2022-10-30T00:17:03.924Z,86.29
2022-10-30T00:19:35.749Z,85.76
2022-10-30T00:24:38.537Z,85.29
2022-10-30T00:27:10.846Z,85.43
2022-10-30T00:29:43.077Z,85.25
2022-10-30T00:32:15.114Z,85.38
2022-10-30T00:34:47.691Z,85.46
2022-10-30T00:37:19.555Z,85.05
2022-10-30T00:39:52.271Z,84.92
2022-10-30T00:42:25.681Z,84.45
2022-10-30T00:44:57.573Z,84.53
2022-10-30T00:47:35.297Z,84.53
2022-10-30T00:50:22.285Z,84.84
2022-10-30T00:53:00.356Z,84.89
2022-10-30T00:55:35.638Z,85.04
2022-10-30T00:58:10.376Z,85.02
2022-10-30T01:00:45.388Z,85.28
2022-10-30T01:03:17.824Z,85.53
2022-10-30T01:05:52.473Z,85.28
2022-10-30T01:08:24.907Z,84.95
2022-10-30T01:10:59.854Z,84.54
2022-10-30T01:13:33.911Z,84.26
2022-10-30T01:16:23.380Z,83.15
2022-10-30T01:19:16.624Z,82.44
2022-10-30T01:22:06.860Z,83.53
2022-10-30T01:25:01.011Z,82.77
2022-10-30T01:27:42.446Z,83.03
2022-10-30T01:30:23.329Z,83.19
2022-10-30T01:33:17.511Z,82.94
2022-10-30T01:35:52.915Z,83.24
2022-10-30T01:38:39.630Z,83.31
2022-10-30T01:41:12.431Z,83.95
2022-10-30T01:43:48.319Z,83.67
2022-10-30T01:46:44.424Z,83.76
2022-10-30T01:49:37.514Z,83.68
2022-10-30T01:52:21.564Z,83.53
2022-10-30T01:55:11.278Z,83.70
2022-10-30T01:57:58.317Z,83.83
2022-10-30T02:00:30.358Z,83.60
2022-10-30T02:03:03.167Z,83.20
2022-10-30T02:05:46.988Z,83.55
2022-10-30T02:08:19.496Z,83.76
2022-10-30T02:10:54.702Z,83.91
2022-10-30T02:13:28.359Z,84.10
2022-10-30T02:16:01.539Z,83.89
2022-10-30T02:18:33.658Z,83.62
2022-10-30T02:21:06.730Z,83.46
2022-10-30T02:23:38.864Z,83.81
2022-10-30T02:26:10.802Z,84.06
2022-10-30T02:28:42.800Z,83.78
2022-10-30T02:31:15.108Z,83.57
2022-10-30T02:33:50.196Z,83.30
2022-10-30T02:36:22.118Z,82.68
2022-10-30T02:38:55.281Z,80.51
2022-10-30T02:41:27.361Z,80.45
2022-10-30T02:43:59.468Z,80.31
2022-10-30T02:46:31.464Z,79.71
2022-10-30T02:49:03.622Z,79.25
2022-10-30T02:51:35.887Z,78.22
2022-10-30T02:54:07.935Z,78.04
2022-10-30T02:56:41.996Z,78.02
2022-10-30T02:59:14.145Z,77.13
2022-10-30T03:01:46.291Z,76.77
2022-10-30T03:04:18.881Z,75.64
2022-10-30T03:06:52.503Z,75.25
2022-10-30T03:09:24.775Z,74.97
2022-10-30T03:11:56.668Z,74.99
2022-10-30T03:14:29.036Z,74.62
2022-10-30T03:17:01.001Z,74.68
2022-10-30T03:19:33.045Z,74.45
2022-10-30T03:22:05.119Z,74.81
2022-10-30T03:24:38.302Z,74.97
2022-10-30T03:27:10.188Z,75.47
2022-10-30T03:29:42.389Z,75.60
2022-10-30T03:32:15.984Z,75.63
2022-10-30T03:34:49.781Z,75.38
2022-10-30T03:37:23.189Z,74.21
2022-10-30T03:39:55.131Z,72.67
2022-10-30T03:42:27.389Z,72.32
2022-10-30T03:44:59.506Z,71.35
2022-10-30T03:47:33.416Z,71.69
2022-10-30T03:50:05.507Z,71.89
2022-10-30T03:52:38.278Z,72.99
2022-10-30T03:55:10.635Z,72.92
2022-10-30T03:57:43.912Z,72.94
2022-10-30T04:00:18.512Z,73.12
2022-10-30T04:03:01.506Z,73.33
2022-10-30T04:05:34.716Z,74.17
2022-10-30T04:08:10.313Z,74.24
2022-10-30T04:10:46.221Z,74.34
2022-10-30T04:13:20.449Z,74.33
2022-10-30T04:15:58.027Z,74.67
2022-10-30T04:18:28.130Z,74.56
2022-10-30T04:21:02.102Z,73.73
2022-10-30T04:23:36.218Z,73.86
2022-10-30T04:26:08.401Z,74.37
2022-10-30T04:28:42.333Z,74.43
2022-10-30T04:31:14.237Z,74.55
2022-10-30T04:33:47.246Z,74.22
2022-10-30T04:36:19.541Z,73.76
2022-10-30T04:38:51.486Z,73.26
2022-10-30T04:41:24.033Z,72.47
2022-10-30T04:43:58.000Z,72.33
2022-10-30T04:46:29.927Z,72.08
2022-10-30T04:49:03.685Z,72.00
2022-10-30T04:51:35.669Z,71.19
2022-10-30T04:54:08.832Z,70.79
2022-10-30T04:56:41.500Z,71.34
2022-10-30T04:59:13.519Z,71.50
2022-10-30T05:01:45.736Z,71.61
2022-10-30T05:04:17.746Z,71.51
2022-10-30T05:06:52.256Z,71.10
2022-10-30T05:09:24.249Z,71.09
2022-10-30T05:11:59.954Z,71.43
2022-10-30T05:14:32.444Z,71.41
2022-10-30T05:17:04.447Z,71.64
2022-10-30T05:19:38.099Z,71.47
2022-10-30T05:22:10.591Z,71.58
2022-10-30T05:24:42.549Z,71.24
2022-10-30T05:27:14.654Z,71.16
2022-10-30T05:29:46.616Z,71.02
2022-10-30T05:32:18.698Z,70.18
2022-10-30T05:34:52.310Z,69.99
2022-10-30T05:37:26.151Z,68.42
2022-10-30T05:39:58.265Z,67.11
2022-10-30T05:42:32.780Z,67.65
2022-10-30T05:45:06.751Z,68.55
2022-10-30T05:47:39.799Z,68.58
2022-10-30T05:50:12.630Z,69.54
2022-10-30T05:52:46.717Z,69.93
2022-10-30T05:55:20.086Z,71.16
2022-10-30T05:58:02.347Z,70.83
2022-10-30T06:00:37.437Z,69.78
2022-10-30T06:03:14.305Z,68.50
2022-10-30T06:05:48.356Z,68.74
2022-10-30T06:08:21.132Z,68.06
2022-10-30T06:10:56.103Z,64.34
2022-10-30T06:13:29.800Z,63.97
2022-10-30T06:16:06.550Z,60.10
2022-10-30T06:18:40.158Z,59.64
2022-10-30T06:21:13.914Z,58.20
2022-10-30T06:23:50.515Z,58.94
2022-10-30T06:26:24.237Z,56.90
2022-10-30T06:28:57.781Z,56.83
2022-10-30T06:31:29.748Z,57.06
2022-10-30T06:34:03.464Z,56.58
2022-10-30T06:36:37.043Z,55.99
2022-10-30T06:39:09.579Z,56.21
2022-10-30T06:41:43.521Z,55.63
2022-10-30T06:44:35.308Z,56.06
2022-10-30T06:47:07.662Z,56.29
2022-10-30T06:49:39.631Z,54.93
2022-10-30T06:52:11.653Z,55.44
2022-10-30T06:54:44.100Z,55.48
2022-10-30T06:57:17.727Z,54.02
2022-10-30T06:59:51.712Z,54.09
2022-10-30T07:02:37.418Z,51.88
2022-10-30T07:05:11.167Z,51.72
2022-10-30T07:07:44.034Z,50.85
2022-10-30T07:10:16.097Z,50.99
2022-10-30T07:12:54.564Z,51.06
2022-10-30T07:15:28.649Z,49.83
2022-10-30T07:18:04.543Z,49.15
2022-10-30T07:20:38.657Z,49.40
2022-10-30T07:23:10.751Z,50.72
2022-10-30T07:25:43.017Z,50.73
2022-10-30T07:28:20.081Z,51.00
2022-10-30T07:30:56.621Z,50.86
2022-10-30T07:33:46.684Z,50.59
2022-10-30T07:36:35.034Z,51.17
2022-10-30T07:39:08.966Z,52.46
2022-10-30T07:41:47.318Z,52.66
2022-10-30T07:44:33.941Z,53.15
2022-10-30T07:47:10.558Z,52.46
2022-10-30T07:50:01.997Z,52.01
2022-10-30T07:52:35.610Z,51.52
2022-10-30T07:55:08.398Z,51.71
2022-10-30T07:57:43.525Z,51.92
2022-10-30T08:00:23.092Z,52.36
2022-10-30T08:03:06.564Z,52.34
2022-10-30T08:05:40.431Z,52.42
2022-10-30T08:08:14.196Z,52.17
2022-10-30T08:10:46.654Z,52.22
2022-10-30T08:13:18.815Z,51.37
2022-10-30T08:15:51.232Z,51.27
2022-10-30T08:18:23.309Z,51.41
2022-10-30T08:20:55.297Z,51.48
2022-10-30T08:23:28.315Z,51.22
2022-10-30T08:26:00.786Z,51.02
2022-10-30T08:28:34.253Z,50.41
2022-10-30T08:31:06.761Z,50.82
2022-10-30T08:33:55.438Z,51.88
2022-10-30T08:36:43.871Z,50.70
2022-10-30T08:39:15.045Z,49.85
2022-10-30T08:41:48.988Z,50.82
2022-10-30T08:44:22.796Z,50.07
2022-10-30T08:46:56.636Z,50.07
2022-10-30T08:49:28.830Z,49.79
2022-10-30T08:52:02.336Z,49.50
2022-10-30T08:54:34.305Z,49.51
2022-10-30T08:57:06.352Z,50.21
2022-10-30T08:59:38.989Z,49.37
2022-10-30T09:02:13.088Z,49.66
2022-10-30T09:05:03.100Z,49.89
2022-10-30T09:07:45.707Z,49.66
2022-10-30T09:10:25.218Z,49.79
2022-10-30T09:13:03.359Z,50.29
2022-10-30T09:15:36.268Z,49.69
2022-10-30T09:18:10.479Z,50.25
2022-10-30T09:20:42.636Z,50.11
2022-10-30T09:23:15.763Z,49.88
2022-10-30T09:25:49.504Z,50.37
2022-10-30T09:28:23.093Z,50.94
2022-10-30T09:31:12.875Z,50.16
2022-10-30T09:33:44.890Z,50.75
2022-10-30T09:36:22.087Z,51.93
2022-10-30T09:38:52.326Z,51.61
2022-10-30T09:41:46.989Z,52.37
2022-10-30T09:44:29.057Z,51.97
2022-10-30T09:47:30.298Z,52.93
2022-10-30T09:50:14.770Z,52.53
2022-10-30T09:52:59.031Z,52.93
2022-10-30T09:55:37.442Z,52.67
2022-10-30T09:58:12.520Z,52.24
2022-10-30T10:00:47.987Z,52.01
2022-10-30T10:03:30.167Z,52.58
2022-10-30T10:06:06.705Z,53.14
2022-10-30T10:08:58.015Z,52.95
2022-10-30T10:11:53.417Z,53.41
2022-10-30T10:14:31.645Z,54.53
2022-10-30T10:17:07.163Z,54.60
2022-10-30T10:20:00.266Z,55.19
2022-10-30T10:22:36.129Z,57.09
2022-10-30T10:25:11.108Z,56.16
2022-10-30T10:27:57.607Z,57.11
2022-10-30T10:30:32.469Z,56.79
2022-10-30T10:33:10.595Z,57.06
2022-10-30T10:35:48.511Z,56.07
2022-10-30T10:38:35.393Z,53.61
2022-10-30T10:41:26.583Z,50.35
2022-10-30T10:44:25.354Z,49.01
2022-10-30T10:47:07.492Z,47.41
2022-10-30T10:50:17.355Z,46.72
2022-10-30T10:52:52.485Z,45.69
2022-10-30T10:55:30.031Z,43.13
2022-10-30T10:58:07.754Z,43.34
2022-10-30T11:00:41.691Z,44.11
2022-10-30T11:03:30.957Z,43.79
2022-10-30T11:06:12.135Z,43.94
2022-10-30T11:08:45.012Z,44.72
2022-10-30T11:11:17.083Z,45.36
2022-10-30T11:13:50.749Z,48.25
2022-10-30T11:16:40.311Z,51.90
2022-10-30T11:19:12.701Z,53.84
2022-10-30T11:21:53.328Z,54.37
2022-10-30T11:24:38.004Z,55.96
2022-10-30T11:27:20.515Z,56.02
2022-10-30T11:30:03.255Z,55.13
2022-10-30T11:32:36.520Z,55.33
2022-10-30T11:35:14.042Z,55.68
2022-10-30T11:37:48.835Z,55.24
2022-10-30T11:40:23.149Z,54.55
2022-10-30T11:43:04.435Z,54.12
2022-10-30T11:45:39.510Z,54.52
2022-10-30T11:48:27.176Z,54.71
2022-10-30T11:51:04.778Z,54.40
2022-10-30T11:53:40.341Z,54.73
2022-10-30T11:56:23.877Z,51.28
2022-10-30T11:58:58.474Z,51.39
2022-10-30T12:01:39.472Z,51.00
2022-10-30T12:04:27.538Z,50.57
2022-10-30T12:07:11.087Z,49.99
2022-10-30T12:09:44.952Z,49.97
2022-10-30T12:12:33.152Z,50.61
2022-10-30T12:15:14.163Z,51.13
2022-10-30T12:18:03.931Z,50.45
2022-10-30T12:20:56.161Z,50.17
2022-10-30T12:23:29.921Z,50.06
2022-10-30T12:26:04.781Z,49.74
2022-10-30T12:28:37.526Z,49.40
2022-10-30T12:31:18.706Z,49.23
2022-10-30T12:34:13.242Z,48.75
2022-10-30T12:36:48.471Z,49.23
2022-10-30T12:39:33.226Z,48.19
2022-10-30T12:42:16.613Z,47.54
2022-10-30T12:44:51.546Z,47.14
2022-10-30T12:47:44.199Z,47.43
2022-10-30T12:50:19.145Z,46.81
2022-10-30T12:53:03.402Z,46.20
2022-10-30T12:55:43.677Z,46.81
2022-10-30T12:58:21.177Z,46.64
2022-10-30T13:01:05.029Z,48.94
2022-10-30T13:03:42.618Z,50.58
2022-10-30T13:06:29.676Z,55.03
2022-10-30T13:09:22.701Z,54.50
2022-10-30T13:12:06.592Z,56.19
2022-10-30T13:14:45.151Z,61.48
2022-10-30T13:17:17.478Z,60.44
2022-10-30T13:19:51.229Z,61.50
2022-10-30T13:22:54.518Z,62.51
2022-10-30T13:25:35.550Z,64.14
2022-10-30T13:28:19.254Z,66.42
2022-10-30T13:30:54.394Z,68.50
2022-10-30T13:33:37.911Z,69.53
2022-10-30T13:36:18.592Z,71.15
2022-10-30T13:39:02.594Z,71.78
2022-10-30T13:41:37.746Z,72.67
2022-10-30T13:44:21.833Z,74.18
2022-10-30T13:47:08.953Z,73.53
2022-10-30T13:49:49.815Z,73.93
2022-10-30T13:52:23.820Z,74.23
2022-10-30T13:55:04.706Z,75.34
2022-10-30T13:57:45.564Z,74.71
2022-10-30T14:00:23.366Z,75.80
2022-10-30T14:03:19.204Z,73.65
2022-10-30T14:05:54.390Z,73.58
2022-10-30T14:08:44.583Z,73.75
2022-10-30T14:11:16.728Z,73.45
2022-10-30T14:14:06.813Z,74.57
2022-10-30T14:16:47.945Z,73.99
2022-10-30T14:19:20.605Z,73.89
2022-10-30T14:21:57.233Z,72.39
2022-10-30T14:24:32.140Z,73.25
2022-10-30T14:27:10.470Z,72.70
2022-10-30T14:29:45.552Z,73.65
2022-10-30T14:32:20.714Z,74.40
2022-10-30T14:34:55.954Z,72.67
2022-10-30T14:37:31.327Z,71.12
2022-10-30T14:40:08.957Z,71.28
2022-10-30T14:42:47.339Z,72.01
2022-10-30T14:45:38.811Z,72.54
2022-10-30T14:48:29.690Z,72.96
2022-10-30T14:51:19.777Z,73.57
2022-10-30T14:54:18.269Z,74.25
2022-10-30T14:56:50.235Z,74.75
2022-10-30T14:59:25.661Z,75.21
2022-10-30T15:02:06.192Z,75.59
2022-10-30T15:04:47.137Z,76.25
2022-10-30T15:07:38.422Z,76.23
2022-10-30T15:10:19.037Z,77.20
2022-10-30T15:13:16.111Z,77.77
2022-10-30T15:16:03.268Z,78.14
2022-10-30T15:18:35.766Z,78.27
2022-10-30T15:21:08.858Z,78.06
2022-10-30T15:23:42.892Z,78.34
2022-10-30T15:26:23.721Z,78.37
2022-10-30T15:28:55.956Z,78.44
2022-10-30T15:31:29.622Z,78.32
2022-10-30T15:34:01.789Z,78.36
2022-10-30T15:36:39.228Z,78.57
2022-10-30T15:39:14.118Z,79.02
2022-10-30T15:41:52.003Z,79.28
2022-10-30T15:44:35.922Z,79.24
2022-10-30T15:47:21.116Z,79.10
2022-10-30T15:49:55.457Z,78.71
2022-10-30T15:52:29.807Z,78.48
2022-10-30T15:55:08.022Z,77.33
2022-10-30T15:58:09.178Z,77.78
2022-10-30T16:00:30.549Z,77.19
2022-10-30T16:03:05.394Z,76.93
2022-10-30T16:05:37.486Z,77.45
2022-10-30T16:08:18.030Z,77.73
2022-10-30T16:10:52.203Z,77.95
2022-10-30T16:13:24.975Z,78.07
2022-10-30T16:15:57.028Z,76.61
2022-10-30T16:18:31.390Z,76.01
2022-10-30T16:21:11.547Z,74.94
2022-10-30T16:23:45.706Z,75.55
2022-10-30T16:26:38.302Z,75.82
2022-10-30T16:29:20.687Z,75.68
2022-10-30T16:31:53.821Z,74.40
2022-10-30T16:34:35.617Z,74.23
2022-10-30T16:37:10.180Z,73.71
2022-10-30T16:39:44.137Z,72.83
2022-10-30T16:42:22.022Z,73.40
2022-10-30T16:44:56.880Z,72.82
2022-10-30T16:47:29.948Z,72.08
2022-10-30T16:50:01.973Z,71.07
2022-10-30T16:52:38.769Z,69.57
2022-10-30T16:55:22.236Z,69.08
2022-10-30T16:57:59.765Z,67.79
2022-10-30T17:00:36.172Z,67.17
2022-10-30T17:03:13.480Z,66.76
2022-10-30T17:05:47.783Z,67.13
2022-10-30T17:08:20.382Z,68.61
2022-10-30T17:11:00.711Z,67.21
2022-10-30T17:13:46.145Z,69.11
2022-10-30T17:16:24.662Z,69.41
2022-10-30T17:18:56.698Z,69.73
2022-10-30T17:21:43.289Z,70.51
2022-10-30T17:24:23.805Z,70.04
2022-10-30T17:26:58.031Z,68.55
2022-10-30T17:29:39.859Z,68.11
2022-10-30T17:32:22.401Z,68.20
2022-10-30T17:35:00.882Z,67.65
2022-10-30T17:37:33.004Z,67.52
2022-10-30T17:40:05.267Z,68.53
2022-10-30T17:42:37.237Z,68.58
2022-10-30T17:45:11.111Z,69.21
2022-10-30T17:47:42.976Z,69.18
2022-10-30T17:50:14.821Z,69.55
2022-10-30T17:52:46.620Z,69.55
2022-10-30T17:55:27.254Z,70.24
2022-10-30T17:57:59.176Z,70.35
2022-10-30T18:00:31.235Z,70.64
2022-10-30T18:03:04.587Z,71.37
2022-10-30T18:05:37.410Z,71.07
2022-10-30T18:08:09.351Z,71.47
2022-10-30T18:10:41.469Z,72.03
2022-10-30T18:13:15.234Z,71.78
2022-10-30T18:15:52.662Z,71.60
2022-10-30T18:18:24.499Z,72.19
2022-10-30T18:20:56.663Z,72.47
2022-10-30T18:23:50.873Z,72.48
2022-10-30T18:26:02.607Z,72.60
2022-10-30T18:28:34.529Z,71.88
2022-10-30T18:31:06.737Z,71.83
2022-10-30T18:33:38.671Z,71.69
2022-10-30T18:36:16.195Z,70.85
2022-10-30T18:38:48.383Z,70.56
2022-10-30T18:41:23.112Z,70.54
2022-10-30T18:43:54.971Z,69.98
2022-10-30T18:46:27.166Z,69.50
2022-10-30T18:48:59.522Z,69.57
2022-10-30T18:51:31.396Z,69.56
2022-10-30T18:54:03.497Z,69.59
2022-10-30T18:56:35.474Z,69.62
2022-10-30T18:59:07.513Z,69.10
2022-10-30T19:01:39.910Z,69.45
2022-10-30T19:04:12.548Z,69.44
2022-10-30T19:06:44.964Z,69.78
2022-10-30T19:09:16.818Z,69.23
2022-10-30T19:11:48.623Z,69.71
2022-10-30T19:14:21.799Z,69.65
2022-10-30T19:16:53.912Z,70.31
2022-10-30T19:19:25.921Z,70.34
2022-10-30T19:21:57.726Z,69.73
2022-10-30T19:24:29.754Z,69.30
2022-10-30T19:27:01.740Z,69.68
2022-10-30T19:29:33.750Z,68.61
2022-10-30T19:32:05.644Z,67.73
2022-10-30T19:34:37.552Z,67.37
2022-10-30T19:37:10.571Z,67.40
2022-10-30T19:39:42.383Z,67.52
2022-10-30T19:42:14.190Z,67.43
2022-10-30T19:44:46.324Z,66.68
2022-10-30T19:47:18.296Z,66.36
2022-10-30T19:49:50.230Z,65.93
2022-10-30T19:52:26.658Z,65.79
2022-10-30T19:54:55.745Z,65.97
2022-10-30T19:57:27.713Z,66.22
2022-10-30T20:00:01.637Z,66.81
2022-10-30T20:02:35.385Z,66.91
2022-10-30T20:05:07.598Z,66.50
2022-10-30T20:07:39.664Z,66.62
2022-10-30T20:10:17.018Z,66.31
2022-10-30T20:15:25.604Z,65.17
2022-10-30T20:17:58.925Z,65.08
2022-10-30T20:20:35.678Z,65.21
2022-10-30T20:23:07.685Z,65.28
2022-10-30T20:25:39.739Z,64.32
2022-10-30T20:28:26.450Z,64.61
2022-10-30T20:30:58.545Z,63.62
2022-10-30T20:33:30.707Z,63.34
2022-10-30T20:36:02.774Z,62.71
2022-10-30T20:38:35.853Z,62.02
2022-10-30T20:41:08.234Z,62.47
2022-10-30T20:43:40.710Z,62.64
2022-10-30T20:46:12.575Z,62.51
2022-10-30T20:48:44.552Z,61.80
2022-10-30T20:51:16.559Z,61.54
2022-10-30T20:53:48.660Z,61.42
2022-10-30T20:56:20.748Z,60.84
2022-10-30T20:58:53.539Z,60.81
2022-10-30T21:01:25.712Z,61.39
2022-10-30T21:04:01.536Z,61.65
2022-10-30T21:06:31.737Z,61.41
2022-10-30T21:09:03.596Z,61.27
2022-10-30T21:11:35.523Z,60.26
2022-10-30T21:14:07.394Z,59.92
2022-10-30T21:16:39.271Z,59.85
2022-10-30T21:19:11.155Z,60.55
2022-10-30T21:21:43.150Z,60.87
2022-10-30T21:24:15.116Z,61.32
2022-10-30T21:26:47.158Z,61.50
2022-10-30T21:29:19.213Z,60.74
2022-10-30T21:31:52.598Z,61.26
2022-10-30T21:34:24.578Z,61.03
2022-10-30T21:36:56.745Z,60.13
2022-10-30T21:39:28.649Z,59.79
2022-10-30T21:42:00.466Z,59.52
2022-10-30T21:44:32.658Z,59.60
2022-10-30T21:47:04.549Z,59.59
2022-10-30T21:49:36.450Z,59.55
2022-10-30T21:52:08.332Z,58.55
2022-10-30T21:54:41.793Z,58.46
2022-10-30T21:57:14.102Z,57.99
2022-10-30T21:59:46.282Z,58.01
2022-10-30T22:02:18.467Z,57.46
2022-10-30T22:04:50.522Z,58.31
2022-10-30T22:07:22.577Z,56.58
2022-10-30T22:09:54.745Z,57.25
2022-10-30T22:12:26.653Z,57.24
2022-10-30T22:14:58.529Z,57.02
2022-10-30T22:17:33.840Z,56.90
2022-10-30T22:20:04.444Z,57.37
2022-10-30T22:22:36.410Z,57.05
2022-10-30T22:25:11.190Z,57.32
2022-10-30T22:27:43.081Z,57.34
2022-10-30T22:30:15.730Z,57.67
2022-10-30T22:32:47.821Z,56.92
2022-10-30T22:35:19.859Z,56.67
2022-10-30T22:37:51.947Z,56.55
2022-10-30T22:40:23.751Z,56.53
2022-10-30T22:42:55.740Z,56.44
2022-10-30T22:45:27.708Z,56.60
2022-10-30T22:47:59.917Z,56.44
2022-10-30T22:50:32.105Z,56.43
2022-10-30T22:53:04.194Z,56.51
2022-10-30T22:55:36.193Z,56.85
2022-10-30T22:58:08.461Z,56.42
2022-10-30T23:00:40.532Z,56.69
2022-10-30T23:03:12.493Z,56.96
2022-10-30T23:05:44.671Z,57.94
2022-10-30T23:08:16.570Z,58.48
2022-10-30T23:10:54.464Z,58.02
2022-10-30T23:13:27.137Z,58.31
2022-10-30T23:16:03.625Z,58.66
2022-10-30T23:18:36.159Z,59.50
2022-10-30T23:21:11.302Z,59.50
2022-10-30T23:23:44.048Z,59.40
2022-10-30T23:26:22.085Z,59.67
2022-10-30T23:28:55.740Z,59.83
2022-10-30T23:31:30.274Z,59.72
2022-10-30T23:34:05.105Z,59.91
2022-10-30T23:36:37.432Z,59.86
2022-10-30T23:39:12.390Z,60.00
2022-10-30T23:41:45.050Z,59.97
2022-10-30T23:44:17.786Z,59.65
2022-10-30T23:46:49.703Z,59.80
2022-10-30T23:49:21.940Z,59.50
2022-10-30T23:51:54.007Z,59.54
2022-10-30T23:54:26.125Z,59.45
2022-10-30T23:56:58.026Z,59.69
2022-10-30T23:59:29.958Z,59.32
